Regatta — V7DM3 — position and weather

sailwx.info

Track history (hours):
 
Tides and Currents Weather Stations Pressure Air Temp Water Temp Dewpoint Dewpoint Depression Visibility Wind Speed Wind Dir Waves Ship Positions

Regatta

Last reported at 2017-Aug-15 23:23 UTC. Time now 2017-Aug-20 13:40 UTC.
Position N 51°16' W 129°12'.

Length 180 m; draft 5.7 m.

Type: Passenger vessel. MMSI: 538001664.

Date/timePositionNaut miles runAvg speedWind from/ knotsBaromVisibWave heightAir tempDewpointWater temp
2017-Aug-15 23:23N 51°16' W 129°12'718.0
2017-Aug-15 23:00N 51°14' W 129°02'918.0
2017-Aug-15 22:31N 51°11' W 128°48'918.1
2017-Aug-15 22:01N 51°08' W 128°35'918.0
2017-Aug-15 21:31N 51°06' W 128°21'918.0
2017-Aug-15 21:00N 51°03' W 128°07'918.0
2017-Aug-15 20:30N 51°00' W 127°54'714.5
2017-Aug-15 20:00N 50°57' W 127°43'918.9
2017-Aug-15 19:30N 50°51' W 127°31'1019.0
2017-Aug-15 19:00N 50°47' W 127°18'1018.8
2017-Aug-15 18:28N 50°43' W 127°03'1017.7
2017-Aug-15 17:55N 50°39' W 126°49'5616.0
2017-Aug-15 14:27N 50°20' W 125°27'715.4
2017-Aug-15 14:00N 50°14' W 125°23'714.4
2017-Aug-15 13:30N 50°07' W 125°20'510.8
2017-Aug-15 13:00N 50°03' W 125°15'612.4
2017-Aug-15 12:30N 49°58' W 125°10'815.3
2017-Aug-15 12:00N 49°52' W 125°02'816.1
2017-Aug-15 11:30N 49°47' W 124°53'816.7
2017-Aug-15 11:01N 49°40' W 124°44'917.7
2017-Aug-15 10:30N 49°34' W 124°35'917.5
2017-Aug-15 10:00N 49°27' W 124°26'917.8
2017-Aug-15 09:30N 49°24' W 124°13'918.4
2017-Aug-15 09:00N 49°21' W 124°00'918.0
2017-Aug-15 08:30N 49°17' W 123°48'918.1
2017-Aug-15 08:00N 49°13' W 123°35'918.2
2017-Aug-15 07:30N 49°07' W 123°25'918.4
2017-Aug-15 07:01N 49°00' W 123°15'918.0
2017-Aug-15 06:31N 48°54' W 123°05'815.9
2017-Aug-15 06:00N 48°47' W 123°01'918.5
2017-Aug-15 05:30N 48°42' W 123°14'816.7
2017-Aug-15 05:00N 48°34' W 123°12'918.6
2017-Aug-15 04:30N 48°25' W 123°11'816.6
2017-Aug-15 04:00N 48°22' W 123°23'917.1
2017-Aug-15 03:30N 48°13' W 123°26'612.3
2017-Aug-15 03:00N 48°09' W 123°19'917.6
2017-Aug-15 02:29N 48°13' W 123°07'917.9
2017-Aug-15 02:00N 48°12' W 122°54'916.8
2017-Aug-15 01:26N 48°08' W 122°41'817.2
2017-Aug-15 00:59N 48°01' W 122°37'918.1
2017-Aug-15 00:30N 47°54' W 122°29'918.5
2017-Aug-15 00:00N 47°45' W 122°26'816.0
2017-Aug-14 23:30N 47°37' W 122°24'2 3.3
2017-Aug-14 23:00N 47°37' W 122°21'0 0.0
2017-Aug-14 22:30N 47°37' W 122°21'0 0.0
2017-Aug-14 22:00N 47°37' W 122°21'0 0.0
2017-Aug-14 21:30N 47°37' W 122°21'0 0.0
2017-Aug-14 21:00N 47°37' W 122°21'0 0.0
2017-Aug-14 20:30N 47°37' W 122°21'0 0.0
2017-Aug-14 20:00N 47°37' W 122°21'0 0.0
2017-Aug-14 19:30N 47°37' W 122°21'0 0.0
2017-Aug-14 19:00N 47°37' W 122°21'0 0.0
2017-Aug-14 18:30N 47°37' W 122°21'0 0.0
2017-Aug-14 18:00N 47°37' W 122°21'0 0.0
2017-Aug-14 17:30N 47°37' W 122°21'0 0.0
2017-Aug-14 17:00N 47°37' W 122°21'0 0.0
2017-Aug-14 16:30N 47°37' W 122°21'0 0.0
2017-Aug-14 16:00N 47°37' W 122°21'0 0.0
2017-Aug-14 15:30N 47°37' W 122°21'0 0.0
2017-Aug-14 15:00N 47°37' W 122°21'0 0.0
2017-Aug-14 14:30N 47°37' W 122°21'0 0.0
2017-Aug-14 14:00N 47°37' W 122°21'0 0.0
2017-Aug-14 13:30N 47°37' W 122°21'1 2.1
2017-Aug-14 13:00N 47°36' W 122°22'5 9.6
2017-Aug-14 12:31N 47°39' W 122°28'816.2
2017-Aug-14 12:01N 47°47' W 122°27'817.0
2017-Aug-14 11:31N 47°55' W 122°30'917.0
2017-Aug-14 10:58N 48°02' W 122°39'816.1
2017-Aug-14 10:28N 48°09' W 122°45'817.3
2017-Aug-14 10:01N 48°11' W 122°57'917.4
2017-Aug-14 09:31N 48°12' W 123°10'916.9
2017-Aug-14 09:00N 48°11' W 123°22'714.1
2017-Aug-14 08:30N 48°13' W 123°33'713.3
2017-Aug-14 08:00N 48°14' W 123°43'816.5
2017-Aug-14 07:30N 48°14' W 123°55'917.1
2017-Aug-14 07:00N 48°17' W 124°07'917.4
2017-Aug-14 06:30N 48°20' W 124°18'917.2
2017-Aug-14 06:00N 48°24' W 124°30'816.8
2017-Aug-14 05:30N 48°28' W 124°41'816.4
2017-Aug-14 05:00N 48°28' W 124°54'917.8
2017-Aug-14 04:30N 48°29' W 125°07'918.3
2017-Aug-14 04:00N 48°32' W 125°20'918.2
2017-Aug-14 03:30N 48°36' W 125°32'918.6
2017-Aug-14 03:00N 48°41' W 125°44'918.4
2017-Aug-14 02:30N 48°45' W 125°56'918.0
2017-Aug-14 02:00N 48°50' W 126°08'918.3
2017-Aug-14 01:30N 48°56' W 126°19'918.4
2017-Aug-14 01:00N 49°02' W 126°30'  
2017-Aug-09 01:56N 51°55' W 130°07'817.0
2017-Aug-09 01:27N 51°47' W 130°02'1217.2
2017-Aug-09 00:43N 51°37' W 129°49'417.4
2017-Aug-09 00:28N 51°34' W 129°44'817.5
2017-Aug-09 00:00N 51°29' W 129°35'917.3
2017-Aug-08 23:31N 51°23' W 129°24'917.5
2017-Aug-08 23:00N 51°17' W 129°14'917.4
2017-Aug-08 22:31N 51°14' W 129°01'1018.0
2017-Aug-08 21:58N 51°11' W 128°46'817.5
2017-Aug-08 21:30N 51°08' W 128°34'917.4
2017-Aug-08 21:00N 51°06' W 128°21'1417.5
2017-Aug-08 20:12N 51°01' W 127°59'317.8
2017-Aug-08 20:00N 51°00' W 127°54'2615.2
2017-Aug-08 18:19N 50°45' W 127°21'618.4
2017-Aug-08 17:59N 50°41' W 127°15'816.8
2017-Aug-08 17:30N 50°37' W 127°03'510.9
2017-Aug-08 17:00N 50°34' W 126°56'5817.7
2017-Aug-08 13:43N 50°20' W 125°27'414.4
2017-Aug-08 13:28N 50°17' W 125°25'816.6
2017-Aug-08 13:00N 50°10' W 125°22'611.8
2017-Aug-08 12:30N 50°05' W 125°16'510.0
2017-Aug-08 12:00N 50°01' W 125°13'510.7
2017-Aug-08 11:30N 49°57' W 125°08'714.2
2017-Aug-08 11:00N 49°51' W 124°60'816.2
2017-Aug-08 10:30N 49°46' W 124°51'816.0
2017-Aug-08 10:00N 49°40' W 124°43'918.0
2017-Aug-08 09:30N 49°33' W 124°33'916.9
2017-Aug-08 08:58N 49°27' W 124°23'2016.9
2017-Aug-08 07:48N 49°17' W 123°57'6 9.7
2017-Aug-08 07:11N 49°13' W 123°51'313.3
2017-Aug-08 06:57N 49°13' W 123°46'614.0
2017-Aug-08 06:30N 49°11' W 123°37'713.9
2017-Aug-08 06:00N 49°07' W 123°29'814.9
2017-Aug-08 05:29N 49°03' W 123°19'816.6
2017-Aug-08 05:01N 48°57' W 123°10'916.8
2017-Aug-08 04:30N 48°52' W 122°60'1418.6
2017-Aug-08 03:45N 48°43' W 122°44'417.5
2017-Aug-08 03:31N 48°38' W 122°44'918.6
2017-Aug-08 03:01N 48°29' W 122°44'1018.8
2017-Aug-08 02:30N 48°20' W 122°46'916.2
2017-Aug-08 01:57N 48°11' W 122°45'817.2
2017-Aug-08 01:31N 48°04' W 122°39'816.3
2017-Aug-08 01:00N 47°57' W 122°33'815.5
2017-Aug-08 00:31N 47°50' W 122°27'815.9
2017-Aug-08 00:01N 47°42' W 122°27'612.6
2017-Aug-07 23:30N 47°37' W 122°22'1 1.7
2017-Aug-07 22:59N 47°37' W 122°21'0 0.0
2017-Aug-07 22:29N 47°37' W 122°21'0 0.0
2017-Aug-07 22:00N 47°37' W 122°21'0 0.0
2017-Aug-07 21:29N 47°37' W 122°21'0 0.0
2017-Aug-07 21:00N 47°37' W 122°21'0 0.0
2017-Aug-07 20:29N 47°37' W 122°21'0 0.0
2017-Aug-07 19:59N 47°37' W 122°21'0 0.0
2017-Aug-07 19:29N 47°37' W 122°21'0 0.0
2017-Aug-07 18:59N 47°37' W 122°21'0 0.0
2017-Aug-07 18:30N 47°37' W 122°21'0 0.0
2017-Aug-07 17:59N 47°37' W 122°21'0 0.0
2017-Aug-07 17:29N 47°37' W 122°21'0 0.0
2017-Aug-07 16:59N 47°37' W 122°21'0 0.0
2017-Aug-07 16:29N 47°37' W 122°21'0 0.0
2017-Aug-07 15:59N 47°37' W 122°21'0 0.0
2017-Aug-07 15:29N 47°37' W 122°21'0 0.0
2017-Aug-07 14:59N 47°37' W 122°21'0 0.0
2017-Aug-07 14:29N 47°37' W 122°21'0 0.0
2017-Aug-07 14:00N 47°37' W 122°21'0 0.0
2017-Aug-07 13:29N 47°37' W 122°21'1 2.0
2017-Aug-07 13:00N 47°37' W 122°23'5 9.0
2017-Aug-07 12:30N 47°40' W 122°27'713.2
2017-Aug-07 12:00N 47°46' W 122°27'713.5
2017-Aug-07 11:30N 47°53' W 122°29'713.1
2017-Aug-07 10:59N 47°58' W 122°35'913.9
2017-Aug-07 10:21N 48°06' W 122°40'513.9
2017-Aug-07 10:00N 48°10' W 122°46'714.9
2017-Aug-07 09:30N 48°11' W 122°56'815.2
2017-Aug-07 09:00N 48°12' W 123°08'715.0
2017-Aug-07 08:30N 48°10' W 123°19'611.9
2017-Aug-07 08:00N 48°11' W 123°28'715.0
2017-Aug-07 07:31N 48°19' W 123°27'612.7
2017-Aug-07 07:00N 48°25' W 123°24'0 0.4
2017-Aug-07 06:06N 48°25' W 123°23'0 0.0
2017-Aug-07 06:00N 48°25' W 123°23'0 0.0
2017-Aug-06 20:12N 48°25' W 123°23'0 0.0
2017-Aug-06 19:51N 48°25' W 123°23'0 0.7
2017-Aug-06 19:31N 48°25' W 123°24'4 7.8
2017-Aug-06 19:00N 48°21' W 123°23'612.1
2017-Aug-06 18:29N 48°15' W 123°27'613.2
2017-Aug-06 18:00N 48°13' W 123°36'713.8
2017-Aug-06 17:29N 48°13' W 123°47'713.9
2017-Aug-06 17:00N 48°14' W 123°57'713.9
2017-Aug-06 16:31N 48°17' W 124°06'714.6
2017-Aug-06 16:01N 48°20' W 124°16'714.2
2017-Aug-06 15:30N 48°23' W 124°26'714.1
2017-Aug-06 15:00N 48°26' W 124°36'714.1
2017-Aug-06 14:31N 48°29' W 124°45'814.9
2017-Aug-06 14:00N 48°28' W 124°57'816.3
2017-Aug-06 13:30N 48°29' W 125°09'816.3
2017-Aug-06 13:00N 48°32' W 125°20'815.8
2017-Aug-06 12:31N 48°36' W 125°30'816.2
2017-Aug-06 12:00N 48°40' W 125°41'816.3
2017-Aug-06 11:30N 48°44' W 125°52'815.9
2017-Aug-06 11:00N 48°48' W 126°03'816.0
2017-Aug-06 10:31N 48°53' W 126°12'816.7
2017-Aug-06 10:00N 48°58' W 126°22'817.1
2017-Aug-06 09:30N 49°03' W 126°32'917.1
2017-Aug-06 09:00N 49°09' W 126°42'817.0
2017-Aug-06 08:30N 49°14' W 126°52'917.1
2017-Aug-06 07:58N 49°20' W 127°03'  
Track history (hours):
 
Tides and Currents Weather Stations Pressure Air Temp Water Temp Dewpoint Dewpoint Depression Visibility Wind Speed Wind Dir Waves Ship Positions

Regatta

Last reported at 2017-Aug-15 23:23 UTC. Time now 2017-Aug-20 13:40 UTC.
Position N 51°16' W 129°12'.

Length 180 m; draft 5.7 m.

Type: Passenger vessel. MMSI: 538001664.

Date/timePositionNaut miles runAvg speedWind from/ knotsBaromVisibWave heightAir tempDewpointWater temp
2017-Aug-15 23:23N 51°16' W 129°12'718.0
2017-Aug-15 23:00N 51°14' W 129°02'918.0
2017-Aug-15 22:31N 51°11' W 128°48'918.1
2017-Aug-15 22:01N 51°08' W 128°35'918.0
2017-Aug-15 21:31N 51°06' W 128°21'918.0
2017-Aug-15 21:00N 51°03' W 128°07'918.0
2017-Aug-15 20:30N 51°00' W 127°54'714.5
2017-Aug-15 20:00N 50°57' W 127°43'918.9
2017-Aug-15 19:30N 50°51' W 127°31'1019.0
2017-Aug-15 19:00N 50°47' W 127°18'1018.8
2017-Aug-15 18:28N 50°43' W 127°03'1017.7
2017-Aug-15 17:55N 50°39' W 126°49'5616.0
2017-Aug-15 14:27N 50°20' W 125°27'715.4
2017-Aug-15 14:00N 50°14' W 125°23'714.4
2017-Aug-15 13:30N 50°07' W 125°20'510.8
2017-Aug-15 13:00N 50°03' W 125°15'612.4
2017-Aug-15 12:30N 49°58' W 125°10'815.3
2017-Aug-15 12:00N 49°52' W 125°02'816.1
2017-Aug-15 11:30N 49°47' W 124°53'816.7
2017-Aug-15 11:01N 49°40' W 124°44'917.7
2017-Aug-15 10:30N 49°34' W 124°35'917.5
2017-Aug-15 10:00N 49°27' W 124°26'917.8
2017-Aug-15 09:30N 49°24' W 124°13'918.4
2017-Aug-15 09:00N 49°21' W 124°00'918.0
2017-Aug-15 08:30N 49°17' W 123°48'918.1
2017-Aug-15 08:00N 49°13' W 123°35'918.2
2017-Aug-15 07:30N 49°07' W 123°25'918.4
2017-Aug-15 07:01N 49°00' W 123°15'918.0
2017-Aug-15 06:31N 48°54' W 123°05'815.9
2017-Aug-15 06:00N 48°47' W 123°01'918.5
2017-Aug-15 05:30N 48°42' W 123°14'816.7
2017-Aug-15 05:00N 48°34' W 123°12'918.6
2017-Aug-15 04:30N 48°25' W 123°11'816.6
2017-Aug-15 04:00N 48°22' W 123°23'917.1
2017-Aug-15 03:30N 48°13' W 123°26'612.3
2017-Aug-15 03:00N 48°09' W 123°19'917.6
2017-Aug-15 02:29N 48°13' W 123°07'917.9
2017-Aug-15 02:00N 48°12' W 122°54'916.8
2017-Aug-15 01:26N 48°08' W 122°41'817.2
2017-Aug-15 00:59N 48°01' W 122°37'918.1
2017-Aug-15 00:30N 47°54' W 122°29'918.5
2017-Aug-15 00:00N 47°45' W 122°26'816.0
2017-Aug-14 23:30N 47°37' W 122°24'2 3.3
2017-Aug-14 23:00N 47°37' W 122°21'0 0.0
2017-Aug-14 22:30N 47°37' W 122°21'0 0.0
2017-Aug-14 22:00N 47°37' W 122°21'0 0.0
2017-Aug-14 21:30N 47°37' W 122°21'0 0.0
2017-Aug-14 21:00N 47°37' W 122°21'0 0.0
2017-Aug-14 20:30N 47°37' W 122°21'0 0.0
2017-Aug-14 20:00N 47°37' W 122°21'0 0.0
2017-Aug-14 19:30N 47°37' W 122°21'0 0.0
2017-Aug-14 19:00N 47°37' W 122°21'0 0.0
2017-Aug-14 18:30N 47°37' W 122°21'0 0.0
2017-Aug-14 18:00N 47°37' W 122°21'0 0.0
2017-Aug-14 17:30N 47°37' W 122°21'0 0.0
2017-Aug-14 17:00N 47°37' W 122°21'0 0.0
2017-Aug-14 16:30N 47°37' W 122°21'0 0.0
2017-Aug-14 16:00N 47°37' W 122°21'0 0.0
2017-Aug-14 15:30N 47°37' W 122°21'0 0.0
2017-Aug-14 15:00N 47°37' W 122°21'0 0.0
2017-Aug-14 14:30N 47°37' W 122°21'0 0.0
2017-Aug-14 14:00N 47°37' W 122°21'0 0.0
2017-Aug-14 13:30N 47°37' W 122°21'1 2.1
2017-Aug-14 13:00N 47°36' W 122°22'5 9.6
2017-Aug-14 12:31N 47°39' W 122°28'816.2
2017-Aug-14 12:01N 47°47' W 122°27'817.0
2017-Aug-14 11:31N 47°55' W 122°30'917.0
2017-Aug-14 10:58N 48°02' W 122°39'816.1
2017-Aug-14 10:28N 48°09' W 122°45'817.3
2017-Aug-14 10:01N 48°11' W 122°57'917.4
2017-Aug-14 09:31N 48°12' W 123°10'916.9
2017-Aug-14 09:00N 48°11' W 123°22'714.1
2017-Aug-14 08:30N 48°13' W 123°33'713.3
2017-Aug-14 08:00N 48°14' W 123°43'816.5
2017-Aug-14 07:30N 48°14' W 123°55'917.1
2017-Aug-14 07:00N 48°17' W 124°07'917.4
2017-Aug-14 06:30N 48°20' W 124°18'917.2
2017-Aug-14 06:00N 48°24' W 124°30'816.8
2017-Aug-14 05:30N 48°28' W 124°41'816.4
2017-Aug-14 05:00N 48°28' W 124°54'917.8
2017-Aug-14 04:30N 48°29' W 125°07'918.3
2017-Aug-14 04:00N 48°32' W 125°20'918.2
2017-Aug-14 03:30N 48°36' W 125°32'918.6
2017-Aug-14 03:00N 48°41' W 125°44'918.4
2017-Aug-14 02:30N 48°45' W 125°56'918.0
2017-Aug-14 02:00N 48°50' W 126°08'918.3
2017-Aug-14 01:30N 48°56' W 126°19'918.4
2017-Aug-14 01:00N 49°02' W 126°30'  
2017-Aug-09 01:56N 51°55' W 130°07'817.0
2017-Aug-09 01:27N 51°47' W 130°02'1217.2
2017-Aug-09 00:43N 51°37' W 129°49'417.4
2017-Aug-09 00:28N 51°34' W 129°44'817.5
2017-Aug-09 00:00N 51°29' W 129°35'917.3
2017-Aug-08 23:31N 51°23' W 129°24'917.5
2017-Aug-08 23:00N 51°17' W 129°14'917.4
2017-Aug-08 22:31N 51°14' W 129°01'1018.0
2017-Aug-08 21:58N 51°11' W 128°46'817.5
2017-Aug-08 21:30N 51°08' W 128°34'917.4
2017-Aug-08 21:00N 51°06' W 128°21'1417.5
2017-Aug-08 20:12N 51°01' W 127°59'317.8
2017-Aug-08 20:00N 51°00' W 127°54'2615.2
2017-Aug-08 18:19N 50°45' W 127°21'618.4
2017-Aug-08 17:59N 50°41' W 127°15'816.8
2017-Aug-08 17:30N 50°37' W 127°03'510.9
2017-Aug-08 17:00N 50°34' W 126°56'5817.7
2017-Aug-08 13:43N 50°20' W 125°27'414.4
2017-Aug-08 13:28N 50°17' W 125°25'816.6
2017-Aug-08 13:00N 50°10' W 125°22'611.8
2017-Aug-08 12:30N 50°05' W 125°16'510.0
2017-Aug-08 12:00N 50°01' W 125°13'510.7
2017-Aug-08 11:30N 49°57' W 125°08'714.2
2017-Aug-08 11:00N 49°51' W 124°60'816.2
2017-Aug-08 10:30N 49°46' W 124°51'816.0
2017-Aug-08 10:00N 49°40' W 124°43'918.0
2017-Aug-08 09:30N 49°33' W 124°33'916.9
2017-Aug-08 08:58N 49°27' W 124°23'2016.9
2017-Aug-08 07:48N 49°17' W 123°57'6 9.7
2017-Aug-08 07:11N 49°13' W 123°51'313.3
2017-Aug-08 06:57N 49°13' W 123°46'614.0
2017-Aug-08 06:30N 49°11' W 123°37'713.9
2017-Aug-08 06:00N 49°07' W 123°29'814.9
2017-Aug-08 05:29N 49°03' W 123°19'816.6
2017-Aug-08 05:01N 48°57' W 123°10'916.8
2017-Aug-08 04:30N 48°52' W 122°60'1418.6
2017-Aug-08 03:45N 48°43' W 122°44'417.5
2017-Aug-08 03:31N 48°38' W 122°44'918.6
2017-Aug-08 03:01N 48°29' W 122°44'1018.8
2017-Aug-08 02:30N 48°20' W 122°46'916.2
2017-Aug-08 01:57N 48°11' W 122°45'817.2
2017-Aug-08 01:31N 48°04' W 122°39'816.3
2017-Aug-08 01:00N 47°57' W 122°33'815.5
2017-Aug-08 00:31N 47°50' W 122°27'815.9
2017-Aug-08 00:01N 47°42' W 122°27'612.6
2017-Aug-07 23:30N 47°37' W 122°22'1 1.7
2017-Aug-07 22:59N 47°37' W 122°21'0 0.0
2017-Aug-07 22:29N 47°37' W 122°21'0 0.0
2017-Aug-07 22:00N 47°37' W 122°21'0 0.0
2017-Aug-07 21:29N 47°37' W 122°21'0 0.0
2017-Aug-07 21:00N 47°37' W 122°21'0 0.0
2017-Aug-07 20:29N 47°37' W 122°21'0 0.0
2017-Aug-07 19:59N 47°37' W 122°21'0 0.0
2017-Aug-07 19:29N 47°37' W 122°21'0 0.0
2017-Aug-07 18:59N 47°37' W 122°21'0 0.0
2017-Aug-07 18:30N 47°37' W 122°21'0 0.0
2017-Aug-07 17:59N 47°37' W 122°21'0 0.0
2017-Aug-07 17:29N 47°37' W 122°21'0 0.0
2017-Aug-07 16:59N 47°37' W 122°21'0 0.0
2017-Aug-07 16:29N 47°37' W 122°21'0 0.0
2017-Aug-07 15:59N 47°37' W 122°21'0 0.0
2017-Aug-07 15:29N 47°37' W 122°21'0 0.0
2017-Aug-07 14:59N 47°37' W 122°21'0 0.0
2017-Aug-07 14:29N 47°37' W 122°21'0 0.0
2017-Aug-07 14:00N 47°37' W 122°21'0 0.0
2017-Aug-07 13:29N 47°37' W 122°21'1 2.0
2017-Aug-07 13:00N 47°37' W 122°23'5 9.0
2017-Aug-07 12:30N 47°40' W 122°27'713.2
2017-Aug-07 12:00N 47°46' W 122°27'713.5
2017-Aug-07 11:30N 47°53' W 122°29'713.1
2017-Aug-07 10:59N 47°58' W 122°35'913.9
2017-Aug-07 10:21N 48°06' W 122°40'513.9
2017-Aug-07 10:00N 48°10' W 122°46'714.9
2017-Aug-07 09:30N 48°11' W 122°56'815.2
2017-Aug-07 09:00N 48°12' W 123°08'715.0
2017-Aug-07 08:30N 48°10' W 123°19'611.9
2017-Aug-07 08:00N 48°11' W 123°28'715.0
2017-Aug-07 07:31N 48°19' W 123°27'612.7
2017-Aug-07 07:00N 48°25' W 123°24'0 0.4
2017-Aug-07 06:06N 48°25' W 123°23'0 0.0
2017-Aug-07 06:00N 48°25' W 123°23'0 0.0
2017-Aug-06 20:12N 48°25' W 123°23'0 0.0
2017-Aug-06 19:51N 48°25' W 123°23'0 0.7
2017-Aug-06 19:31N 48°25' W 123°24'4 7.8
2017-Aug-06 19:00N 48°21' W 123°23'612.1
2017-Aug-06 18:29N 48°15' W 123°27'613.2
2017-Aug-06 18:00N 48°13' W 123°36'713.8
2017-Aug-06 17:29N 48°13' W 123°47'713.9
2017-Aug-06 17:00N 48°14' W 123°57'713.9
2017-Aug-06 16:31N 48°17' W 124°06'714.6
2017-Aug-06 16:01N 48°20' W 124°16'714.2
2017-Aug-06 15:30N 48°23' W 124°26'714.1
2017-Aug-06 15:00N 48°26' W 124°36'714.1
2017-Aug-06 14:31N 48°29' W 124°45'814.9
2017-Aug-06 14:00N 48°28' W 124°57'816.3
2017-Aug-06 13:30N 48°29' W 125°09'816.3
2017-Aug-06 13:00N 48°32' W 125°20'815.8
2017-Aug-06 12:31N 48°36' W 125°30'816.2
2017-Aug-06 12:00N 48°40' W 125°41'816.3
2017-Aug-06 11:30N 48°44' W 125°52'815.9
2017-Aug-06 11:00N 48°48' W 126°03'816.0
2017-Aug-06 10:31N 48°53' W 126°12'816.7
2017-Aug-06 10:00N 48°58' W 126°22'817.1
2017-Aug-06 09:30N 49°03' W 126°32'917.1
2017-Aug-06 09:00N 49°09' W 126°42'817.0
2017-Aug-06 08:30N 49°14' W 126°52'917.1
2017-Aug-06 07:58N 49°20' W 127°03'  

Dump ship's entire track history